createdAt,value
2023-04-13T00:00:56.365Z,6.50
2023-04-13T00:05:59.263Z,7.50
2023-04-13T00:11:01.887Z,14.13
2023-04-13T00:16:06.186Z,10.43
2023-04-13T00:21:08.797Z,19.80
2023-04-13T00:26:11.246Z,12.53
2023-04-13T00:31:13.987Z,10.70
2023-04-13T00:36:16.995Z,13.82
2023-04-13T00:41:22.099Z,15.93
2023-04-13T00:46:27.100Z,14.57
2023-04-13T00:51:30.580Z,19.63
2023-04-13T00:56:34.027Z,20.47
2023-04-13T01:01:46.250Z,13.02
2023-04-13T01:07:09.200Z,19.60
2023-04-13T01:12:26.772Z,16.73
2023-04-13T01:17:33.270Z,20.52
2023-04-13T01:22:39.499Z,22.80
2023-04-13T01:27:51.863Z,24.87
2023-04-13T01:32:56.496Z,18.90
2023-04-13T01:38:02.467Z,15.77
2023-04-13T01:43:10.321Z,21.42
2023-04-13T01:48:31.025Z,20.07
2023-04-13T01:53:42.862Z,17.23
2023-04-13T01:58:52.058Z,18.92
2023-04-13T02:03:57.341Z,20.73
2023-04-13T02:09:09.704Z,17.40
2023-04-13T02:14:12.188Z,15.00
2023-04-13T02:19:16.209Z,25.67
2023-04-13T02:24:18.703Z,23.03
2023-04-13T02:29:21.149Z,28.88
2023-04-13T02:34:23.725Z,26.75
2023-04-13T02:39:26.695Z,27.07
2023-04-13T02:44:31.227Z,33.65
2023-04-13T02:49:34.908Z,26.48
2023-04-13T02:54:58.486Z,27.27
2023-04-13T03:00:10.921Z,22.98
2023-04-13T03:05:22.219Z,26.02
2023-04-13T03:10:25.032Z,30.17
2023-04-13T03:15:30.913Z,32.35
2023-04-13T03:20:35.027Z,27.17
2023-04-13T03:25:37.755Z,43.37
2023-04-13T03:30:41.180Z,36.90
2023-04-13T03:35:43.642Z,44.53
2023-04-13T03:40:55.819Z,48.87
2023-04-13T03:46:00.043Z,41.55
2023-04-13T03:51:02.690Z,48.95
2023-04-13T03:56:13.605Z,38.83
2023-04-13T04:01:16.789Z,36.53
2023-04-13T04:06:24.771Z,45.17
2023-04-13T04:11:35.500Z,54.70
2023-04-13T04:16:39.521Z,52.33
2023-04-13T04:21:53.206Z,50.28
2023-04-13T04:26:59.278Z,46.60
2023-04-13T04:32:03.679Z,53.40
2023-04-13T04:37:19.687Z,78.05
2023-04-13T04:42:27.678Z,57.05
2023-04-13T04:47:32.594Z,61.03
2023-04-13T04:52:45.032Z,55.70
2023-04-13T04:57:53.647Z,63.05
2023-04-13T05:03:01.298Z,53.53
2023-04-13T05:08:05.564Z,71.60
2023-04-13T05:13:14.722Z,61.90
2023-04-13T05:18:23.465Z,59.25
2023-04-13T05:23:26.153Z,60.53
2023-04-13T05:28:39.118Z,58.72
2023-04-13T05:33:42.503Z,55.75
2023-04-13T05:38:45.281Z,65.03
2023-04-13T05:43:50.245Z,53.53
2023-04-13T05:48:53.088Z,53.05
2023-04-13T05:53:59.392Z,62.92
2023-04-13T05:59:04.512Z,64.00
2023-04-13T06:04:09.804Z,56.45
2023-04-13T06:09:13.549Z,58.90
2023-04-13T06:14:19.558Z,59.37
2023-04-13T06:19:22.200Z,56.35
2023-04-13T06:24:24.719Z,52.00
2023-04-13T06:29:27.964Z,63.77
2023-04-13T06:34:40.092Z,67.57
2023-04-13T06:39:43.906Z,54.70
2023-04-13T06:44:47.048Z,51.53
2023-04-13T06:49:51.681Z,43.90
2023-04-13T06:54:54.798Z,48.28
2023-04-13T07:00:12.796Z,47.35
2023-04-13T07:05:25.124Z,37.33
2023-04-13T07:10:33.677Z,42.03
2023-04-13T07:15:39.992Z,45.08
2023-04-13T07:20:44.720Z,47.43
2023-04-13T07:25:49.037Z,46.27
2023-04-13T07:30:57.197Z,36.15
2023-04-13T07:36:00.102Z,37.85
2023-04-13T07:41:07.757Z,37.23
2023-04-13T07:46:12.946Z,39.42
2023-04-13T07:51:18.356Z,55.63
2023-04-13T07:56:23.071Z,47.47
2023-04-13T08:01:28.717Z,41.75
2023-04-13T08:06:35.297Z,34.90
2023-04-13T08:11:38.183Z,39.10
2023-04-13T08:16:43.187Z,43.00
2023-04-13T08:21:46.840Z,42.80
2023-04-13T08:26:49.947Z,40.50
2023-04-13T08:31:53.309Z,38.40
2023-04-13T08:36:57.859Z,45.00
2023-04-13T08:42:04.817Z,30.65
2023-04-13T08:47:11.929Z,44.63
2023-04-13T08:52:16.825Z,25.60
2023-04-13T08:57:23.997Z,33.65
2023-04-13T09:02:37.101Z,44.53
2023-04-13T09:07:47.824Z,35.00
2023-04-13T09:12:52.024Z,35.85
2023-04-13T09:17:55.401Z,33.63
2023-04-13T09:22:58.395Z,33.97
2023-04-13T09:28:01.296Z,38.53
2023-04-13T09:33:08.872Z,39.67
2023-04-13T09:38:15.661Z,33.13
2023-04-13T09:43:19.748Z,39.83
2023-04-13T09:48:23.413Z,35.85
2023-04-13T09:53:26.035Z,44.60
2023-04-13T09:58:30.190Z,37.33
2023-04-13T10:03:34.995Z,33.10
2023-04-13T10:08:39.323Z,39.05
2023-04-13T10:13:48.650Z,38.50
2023-04-13T10:19:06.675Z,39.95
2023-04-13T10:24:14.255Z,42.95
2023-04-13T10:29:30.829Z,50.63
2023-04-13T10:34:39.285Z,41.40
2023-04-13T10:39:41.825Z,34.08
2023-04-13T10:44:52.051Z,35.57
2023-04-13T10:49:54.719Z,41.73
2023-04-13T10:54:57.946Z,39.78
2023-04-13T11:00:00.962Z,35.75
2023-04-13T11:05:04.504Z,36.07
2023-04-13T11:10:07.880Z,36.00
2023-04-13T11:15:10.913Z,30.35
2023-04-13T11:20:13.504Z,39.53
2023-04-13T11:25:16.666Z,41.92
2023-04-13T11:30:22.688Z,46.10
2023-04-13T11:35:25.493Z,34.90
2023-04-13T11:40:28.478Z,36.13
2023-04-13T11:45:31.354Z,35.72
2023-04-13T11:50:34.489Z,41.60
2023-04-13T11:55:51.933Z,36.17
2023-04-13T12:00:59.913Z,39.35
2023-04-13T12:06:06.050Z,40.58
2023-04-13T12:11:39.191Z,29.40
2023-04-13T12:21:40.161Z,30.30
2023-04-13T12:27:17.208Z,38.57
2023-04-13T12:32:11.982Z,27.90
2023-04-13T12:37:14.500Z,32.22
2023-04-13T12:42:17.286Z,33.97
2023-04-13T12:47:19.985Z,31.03
2023-04-13T12:52:22.716Z,33.47
2023-04-13T12:57:25.369Z,27.60
2023-04-13T13:02:31.294Z,35.37
2023-04-13T13:07:33.968Z,30.52
2023-04-13T13:12:36.566Z,20.25
2023-04-13T13:17:42.636Z,27.67
2023-04-13T13:22:45.157Z,27.17
2023-04-13T13:32:53.305Z,29.92
2023-04-13T13:37:55.815Z,23.10
2023-04-13T13:42:58.452Z,18.58
2023-04-13T13:48:01.207Z,29.67
2023-04-13T13:53:14.379Z,16.87
2023-04-13T13:58:18.000Z,19.83
2023-04-13T14:03:21.286Z,26.30
2023-04-13T14:08:23.996Z,32.97
2023-04-13T14:13:26.899Z,22.83
2023-04-13T14:18:29.875Z,20.55
2023-04-13T14:23:32.958Z,18.38
2023-04-13T14:28:37.052Z,18.00
2023-04-13T14:33:39.647Z,18.98
2023-04-13T14:38:42.576Z,23.65
2023-04-13T14:43:45.124Z,36.97
2023-04-13T14:48:47.667Z,29.50
2023-04-13T14:53:50.400Z,36.00
2023-04-13T14:58:53.389Z,34.07
2023-04-13T15:03:56.400Z,20.37
2023-04-13T15:09:00.757Z,17.02
2023-04-13T15:14:04.010Z,20.95
2023-04-13T15:19:06.541Z,23.13
2023-04-13T15:24:11.897Z,28.80
2023-04-13T15:29:14.474Z,23.77
2023-04-13T15:34:17.120Z,25.13
2023-04-13T15:39:19.823Z,16.08
2023-04-13T15:44:22.558Z,18.08
2023-04-13T15:49:25.209Z,18.73
2023-04-13T15:54:27.673Z,17.37
2023-04-13T15:59:31.188Z,16.55
2023-04-13T16:04:33.862Z,17.30
2023-04-13T16:09:36.676Z,15.30
2023-04-13T16:14:42.165Z,19.30
2023-04-13T16:19:47.326Z,11.95
2023-04-13T16:24:49.925Z,14.87
2023-04-13T16:29:52.574Z,16.52
2023-04-13T16:34:55.573Z,14.82
2023-04-13T16:39:58.135Z,12.20
2023-04-13T16:45:03.501Z,9.53
2023-04-13T16:50:08.541Z,16.77
2023-04-13T16:55:15.224Z,12.05
2023-04-13T17:00:21.221Z,7.17
2023-04-13T17:05:28.534Z,9.57
2023-04-13T17:10:31.020Z,7.28
2023-04-13T17:15:33.653Z,7.60
2023-04-13T17:20:40.085Z,9.85
2023-04-13T17:25:45.508Z,13.32
2023-04-13T17:30:48.087Z,11.70
2023-04-13T17:35:56.769Z,10.17
2023-04-13T17:40:59.289Z,7.50
2023-04-13T17:46:04.299Z,10.65
2023-04-13T17:51:12.795Z,12.23
2023-04-13T17:56:18.899Z,11.00
2023-04-13T18:01:25.911Z,11.32
2023-04-13T18:06:34.519Z,11.10
2023-04-13T18:11:37.131Z,9.65
2023-04-13T18:16:39.826Z,15.15
2023-04-13T18:21:42.457Z,16.17
2023-04-13T18:26:45.092Z,11.07
2023-04-13T18:31:47.827Z,9.75
2023-04-13T18:36:50.465Z,13.35
2023-04-13T18:41:53.046Z,12.17
2023-04-13T18:46:58.963Z,12.10
2023-04-13T18:52:01.650Z,7.97
2023-04-13T18:57:04.320Z,6.97
2023-04-13T19:02:06.834Z,19.13
2023-04-13T19:07:09.400Z,10.93
2023-04-13T19:12:11.978Z,8.43
2023-04-13T19:17:14.658Z,7.32
2023-04-13T19:22:17.096Z,6.93
2023-04-13T19:27:19.647Z,8.17
2023-04-13T19:32:22.468Z,10.25
2023-04-13T19:37:24.976Z,14.50
2023-04-13T19:42:28.863Z,10.53
2023-04-13T19:47:31.441Z,11.53
2023-04-13T19:52:34.480Z,19.00
2023-04-13T19:57:42.555Z,30.52
2023-04-13T20:02:47.332Z,23.53
2023-04-13T20:07:50.064Z,24.65
2023-04-13T20:12:52.728Z,22.00
2023-04-13T20:17:55.842Z,18.27
2023-04-13T20:22:58.289Z,17.15
2023-04-13T20:28:00.854Z,18.10
2023-04-13T20:33:05.594Z,15.20
2023-04-13T20:38:10.192Z,12.98
2023-04-13T20:43:15.746Z,11.98
2023-04-13T20:53:41.918Z,8.52
2023-04-13T20:58:46.317Z,7.82
2023-04-13T21:03:49.183Z,10.37
2023-04-13T21:08:53.048Z,7.85
2023-04-13T21:13:55.714Z,6.77
2023-04-13T21:18:58.336Z,7.50
2023-04-13T21:24:01.287Z,8.98
2023-04-13T21:29:04.495Z,9.23
2023-04-13T21:34:08.421Z,9.67
2023-04-13T21:39:11.687Z,9.93
2023-04-13T21:44:28.870Z,11.70
2023-04-13T21:49:32.831Z,7.83
2023-04-13T21:54:38.566Z,11.25
2023-04-13T21:59:41.364Z,9.07
2023-04-13T22:04:43.838Z,8.23
2023-04-13T22:09:46.195Z,8.82
2023-04-13T22:14:48.635Z,12.73
2023-04-13T22:19:51.188Z,13.13
2023-04-13T22:24:53.839Z,12.77
2023-04-13T22:29:56.306Z,8.43
2023-04-13T22:34:58.825Z,11.43
2023-04-13T22:40:02.648Z,12.88
2023-04-13T22:45:05.552Z,15.43
2023-04-13T22:50:08.296Z,16.70
2023-04-13T22:55:10.775Z,16.13
2023-04-13T23:00:13.995Z,17.40
2023-04-13T23:05:16.841Z,12.38
2023-04-13T23:10:19.561Z,16.02
2023-04-13T23:15:22.096Z,14.33
2023-04-13T23:20:24.778Z,20.35
2023-04-13T23:25:27.339Z,21.77
2023-04-13T23:30:30.068Z,24.50
2023-04-13T23:35:32.648Z,14.40
2023-04-13T23:40:35.252Z,11.93
2023-04-13T23:45:38.268Z,10.82
2023-04-13T23:50:40.804Z,13.50
2023-04-13T23:55:43.308Z,13.17
